Time;durP1;ratioP1;P1;durP2;ratioP2;P2;SDS_P1;SDS_P2;PMS_P1;PMS_P2;Temp;Humidity;BMP_temperature;BMP_pressure;BME280_temperature;BME280_humidity;BME280_pressure;Samples;Min_cycle;Max_cycle;Signal;HPM_P1;HPM_P2
2021/04/03 00:01:22;;;;;;;23.55;6.32;;;;;;;;;;4945256;29;20051;-89
2021/04/03 00:03:52;;;;;;;33.72;8.27;;;;;;;;;;4929083;29;20051;-89
2021/04/03 00:06:20;;;;;;;26.75;10.07;;;;;;;;;;4947643;29;20039;-89
2021/04/03 00:08:48;;;;;;;22.60;9.10;;;;;;;;;;4947521;29;20054;-90
2021/04/03 00:11:20;;;;;;;30.55;8.10;;;6.80;99.90;;;;;;4945819;29;20055;-89
2021/04/03 00:13:48;;;;;;;27.60;8.45;;;;;;;;;;4912272;29;20054;-89
2021/04/03 00:16:16;;;;;;;19.80;5.78;;;;;;;;;;4931981;29;20052;-90
2021/04/03 00:18:45;;;;;;;23.65;5.90;;;;;;;;;;4950574;29;20059;-90
2021/04/03 00:21:18;;;;;;;23.17;8.33;;;6.70;99.90;;;;;;4929779;29;20051;-88
2021/04/03 00:23:46;;;;;;;21.00;7.85;;;;;;;;;;4946201;29;20054;-89
2021/04/03 00:26:14;;;;;;;20.88;9.60;;;;;;;;;;4930370;29;20058;-89
2021/04/03 00:28:44;;;;;;;26.50;9.20;;;;;;;;;;4934639;29;20047;-89
2021/04/03 00:31:20;;;;;;;20.88;8.27;;;;;;;;;;4928366;29;20047;-89
2021/04/03 00:33:48;;;;;;;18.25;7.45;;;;;;;;;;4951152;29;20070;-89
2021/04/03 00:36:16;;;;;;;25.48;12.00;;;;;;;;;;4927873;29;20179;-89
2021/04/03 00:38:44;;;;;;;28.65;8.32;;;;;;;;;;4953475;28;20043;-89
2021/04/03 00:41:13;;;;;;;19.65;7.35;;;;;;;;;;4941062;29;20059;-89
2021/04/03 00:43:40;;;;;;;26.60;7.00;;;;;;;;;;4605879;28;10000445;-90
2021/04/03 00:46:08;;;;;;;21.08;11.18;;;;;;;;;;4942522;29;20066;-90
2021/04/03 00:48:37;;;;;;;19.02;7.43;;;6.40;99.90;;;;;;4926097;28;20062;-89
2021/04/03 00:51:05;;;;;;;20.75;7.82;;;;;;;;;;4953289;29;20079;-89
2021/04/03 00:53:33;;;;;;;35.03;8.38;;;;;;;;;;4922893;29;20047;-89
2021/04/03 00:56:05;;;;;;;15.63;6.97;;;6.40;99.90;;;;;;4933594;29;20074;-90
2021/04/03 00:58:34;;;;;;;22.88;9.30;;;;;;;;;;4910006;29;20052;-89
2021/04/03 01:01:04;;;;;;;26.52;8.02;;;6.40;99.90;;;;;;4956516;29;20066;-91
2021/04/03 01:03:38;;;;;;;35.88;7.85;;;6.40;99.90;;;;;;4939319;29;20048;-90
2021/04/03 01:06:06;;;;;;;24.75;7.85;;;;;;;;;;4939500;29;20051;-90
2021/04/03 01:08:34;;;;;;;20.90;7.35;;;;;;;;;;4930213;29;20051;-89
2021/04/03 01:11:02;;;;;;;23.27;8.38;;;;;;;;;;4911047;29;20055;-89
2021/04/03 01:13:30;;;;;;;21.23;6.70;;;;;;;;;;4956804;28;20063;-89
2021/04/03 01:16:08;;;;;;;24.48;7.20;;;6.50;99.90;;;;;;4938228;29;20051;-88
2021/04/03 01:19:21;;;;;;;20.77;6.78;;;6.50;99.90;;;;;;4943068;28;20047;-87
2021/04/03 01:22:23;;;;;;;23.48;8.18;;;6.60;99.90;;;;;;4972748;28;20606;-89
2021/04/03 01:24:52;;;;;;;18.90;7.78;;;;;;;;;;4924287;29;20062;-89
2021/04/03 01:27:24;;;;;;;21.27;6.43;;;6.70;99.90;;;;;;4927284;29;20402;-89
2021/04/03 01:30:13;;;;;;;26.50;7.25;;;6.70;99.90;;;;;;4925753;29;20051;-89
2021/04/03 01:33:04;;;;;;;44.08;7.68;;;6.70;99.90;;;;;;4941169;29;20060;-89
2021/04/03 01:35:43;;;;;;;29.02;8.57;;;6.80;99.90;;;;;;4927492;28;20070;-89
2021/04/03 01:38:32;;;;;;;26.25;7.13;;;6.70;99.90;;;;;;4955001;29;20051;-90
2021/04/03 01:41:02;;;;;;;51.42;9.02;;;6.70;99.90;;;;;;4931624;29;20055;-91
2021/04/03 01:43:41;;;;;;;19.77;8.50;;;6.80;99.90;;;;;;4933181;28;20047;-89
2021/04/03 01:46:10;;;;;;;26.55;6.47;;;;;;;;;;4985262;28;20050;-88
2021/04/03 01:48:41;;;;;;;23.27;7.28;;;6.80;99.90;;;;;;4956153;28;20051;-87
2021/04/03 01:51:15;;;;;;;25.02;6.15;;;6.80;99.90;;;;;;4951025;29;20055;-89
2021/04/03 01:53:45;;;;;;;26.60;6.28;;;6.80;99.90;;;;;;4923456;28;20367;-88
2021/04/03 01:56:18;;;;;;;25.75;6.53;;;6.80;99.90;;;;;;4962853;29;20057;-89
2021/04/03 01:58:47;;;;;;;25.05;7.35;;;6.90;99.90;;;;;;4959189;29;20051;-90
2021/04/03 02:01:16;;;;;;;32.90;8.57;;;;;;;;;;4939954;29;20045;-89
2021/04/03 02:03:48;;;;;;;25.30;8.45;;;6.80;99.90;;;;;;4977663;28;20070;-89
2021/04/03 02:06:21;;;;;;;21.38;7.28;;;6.90;99.90;;;;;;4976589;28;20058;-89
2021/04/03 02:09:08;;;;;;;32.55;7.45;;;6.90;99.90;;;;;;4962909;28;20045;-89
2021/04/03 02:11:59;;;;;;;20.20;6.32;;;;;;;;;;4983880;28;20051;-88
2021/04/03 02:14:49;;;;;;;22.30;9.27;;;7.00;99.90;;;;;;4942077;29;20070;-89
2021/04/03 02:17:20;;;;;;;24.02;8.18;;;6.90;99.90;;;;;;4927217;29;20055;-90
2021/04/03 02:19:51;;;;;;;24.38;5.85;;;;;;;;;;4937054;28;20055;-89
2021/04/03 02:22:21;;;;;;;21.50;5.80;;;6.90;99.90;;;;;;4967224;28;20059;-88
2021/04/03 02:24:57;;;;;;;19.52;7.93;;;;;;;;;;4945793;29;20047;-89
2021/04/03 02:27:28;;;;;;;28.70;9.32;;;6.90;99.90;;;;;;4958147;29;20062;-92
2021/04/03 02:29:56;;;;;;;28.85;9.00;;;;;;;;;;4976544;28;20050;-89
2021/04/03 02:32:24;;;;;;;15.50;6.18;;;;;;;;;;4944673;29;20471;-89
2021/04/03 02:34:53;;;;;;;21.98;8.35;;;;;;;;;;4962409;28;20065;-89
2021/04/03 02:37:40;;;;;;;37.05;8.05;;;7.00;99.90;;;;;;4961007;28;20059;-89
2021/04/03 02:40:10;;;;;;;18.20;7.47;;;6.90;99.90;;;;;;4959457;29;20047;-90
2021/04/03 02:43:07;;;;;;;29.77;9.10;;;6.90;99.90;;;;;;4962396;28;20070;-89
2021/04/03 02:45:41;;;;;;;25.13;7.97;;;7.00;99.90;;;;;;4600652;29;10000422;-91
2021/04/03 02:48:19;;;;;;;47.75;9.63;;;7.00;99.90;;;;;;4930998;29;20568;-88
2021/04/03 02:50:55;;;;;;;17.55;6.57;;;7.00;99.90;;;;;;4960467;28;20419;-90
2021/04/03 02:53:29;;;;;;;29.48;8.10;;;7.00;99.90;;;;;;4928367;29;20058;-90
2021/04/03 02:56:04;;;;;;;17.98;6.75;;;7.00;99.90;;;;;;4916401;29;20051;-89
2021/04/03 02:58:37;;;;;;;23.58;5.90;;;6.90;99.90;;;;;;4914784;29;20047;-91
2021/04/03 03:01:11;;;;;;;29.15;6.88;;;6.90;99.90;;;;;;4954920;28;20143;-89
2021/04/03 03:03:45;;;;;;;15.77;6.78;;;7.00;99.90;;;;;;4947599;29;20047;-89
2021/04/03 03:06:15;;;;;;;18.30;4.68;;;;;;;;;;4913815;29;20063;-89
2021/04/03 03:08:45;;;;;;;17.13;5.68;;;6.90;99.90;;;;;;4954187;29;20055;-89
2021/04/03 03:11:16;;;;;;;24.63;6.85;;;6.80;99.90;;;;;;4925878;29;20403;-89
2021/04/03 03:13:47;;;;;;;21.05;5.22;;;6.90;99.90;;;;;;4945592;28;20476;-90
2021/04/03 03:16:19;;;;;;;23.60;6.40;;;6.90;99.90;;;;;;4956700;29;20058;-89
2021/04/03 03:18:48;;;;;;;26.10;6.28;;;;;;;;;;4963744;28;20058;-91
2021/04/03 03:21:17;;;;;;;28.58;9.30;;;;;;;;;;4936709;29;20043;-88
2021/04/03 03:23:47;;;;;;;28.52;5.30;;;;;;;;;;4939407;29;20055;-89
2021/04/03 03:26:16;;;;;;;27.55;7.47;;;;;;;;;;4937061;29;20530;-89
2021/04/03 03:28:47;;;;;;;23.42;6.20;;;6.90;99.90;;;;;;4937080;28;20051;-88
2021/04/03 03:31:16;;;;;;;29.23;8.75;;;;;;;;;;4942342;28;20054;-88
2021/04/03 03:33:44;;;;;;;33.50;6.70;;;;;;;;;;4973241;28;20055;-88
2021/04/03 03:36:13;;;;;;;24.02;5.57;;;;;;;;;;4958534;28;20058;-90
2021/04/03 03:38:45;;;;;;;27.80;6.65;;;;;;;;;;4961869;28;20076;-90
2021/04/03 03:41:14;;;;;;;14.55;5.05;;;;;;;;;;4970701;28;20050;-89
2021/04/03 03:43:42;;;;;;;16.67;5.25;;;;;;;;;;4947536;28;20040;-88
2021/04/03 03:46:10;;;;;;;25.65;5.63;;;;;;;;;;4947893;28;20046;-89
2021/04/03 03:48:39;;;;;;;16.20;4.70;;;;;;;;;;4976841;28;20406;-88
2021/04/03 03:51:10;;;;;;;27.58;7.68;;;;;;;;;;4975470;28;20063;-88
2021/04/03 03:53:46;;;;;;;23.65;6.03;;;;;;;;;;4925879;29;20518;-89
2021/04/03 03:56:14;;;;;;;23.20;5.85;;;;;;;;;;4940819;29;20051;-89
2021/04/03 03:58:43;;;;;;;21.92;5.55;;;6.90;99.90;;;;;;4933215;29;20055;-89
2021/04/03 04:01:11;;;;;;;30.45;7.07;;;;;;;;;;4947073;29;20133;-89
2021/04/03 04:03:40;;;;;;;25.65;5.30;;;;;;;;;;4934914;28;20066;-88
2021/04/03 04:06:14;;;;;;;21.08;5.53;;;;;;;;;;4969800;28;20051;-89
2021/04/03 04:08:47;;;;;;;27.05;5.72;;;;;;;;;;4942810;29;20062;-89
2021/04/03 04:11:19;;;;;;;34.13;6.07;;;;;;;;;;4935317;28;20506;-89
2021/04/03 04:13:51;;;;;;;32.22;9.05;;;;;;;;;;4962506;28;20066;-88
2021/04/03 04:16:27;;;;;;;48.20;7.38;;;;;;;;;;4924321;29;20052;-89
2021/04/03 04:18:55;;;;;;;15.82;5.85;;;;;;;;;;4962145;28;20138;-89
2021/04/03 04:21:24;;;;;;;23.60;5.25;;;6.90;99.90;;;;;;4975895;28;20434;-88
2021/04/03 04:23:52;;;;;;;22.00;7.28;;;;;;;;;;4922977;29;20058;-88
2021/04/03 04:26:22;;;;;;;13.50;6.97;;;;;;;;;;4933840;29;20079;-88
2021/04/03 04:28:53;;;;;;;21.23;7.53;;;;;;;;;;4913292;28;20077;-89
2021/04/03 04:31:26;;;;;;;30.98;5.53;;;;;;;;;;4957030;29;20065;-90
2021/04/03 04:34:02;;;;;;;15.77;5.60;;;;;;;;;;4957323;29;20051;-89
2021/04/03 04:36:30;;;;;;;20.38;6.50;;;;;;;;;;4985204;28;20065;-89
2021/04/03 04:39:03;;;;;;;18.05;4.25;;;;;;;;;;4913116;29;20514;-88
2021/04/03 04:41:33;;;;;;;25.43;7.43;;;;;;;;;;4932161;29;20051;-88
2021/04/03 04:44:04;;;;;;;20.65;6.32;;;;;;;;;;4942290;29;20059;-88
2021/04/03 04:46:31;;;;;;;21.05;5.93;;;;;;;;;;4936077;29;20058;-89
2021/04/03 04:48:59;;;;;;;21.67;5.47;;;;;;;;;;4970333;28;20075;-90
2021/04/03 04:51:32;;;;;;;26.08;5.63;;;;;;;;;;4959442;28;20055;-90
2021/04/03 04:54:08;;;;;;;15.95;4.95;;;;;;;;;;4939274;29;20048;-89
2021/04/03 04:56:44;;;;;;;18.20;6.57;;;;;;;;;;4954706;29;20051;-89
2021/04/03 04:59:13;;;;;;;24.55;6.10;;;;;;;;;;4928833;29;20047;-89
2021/04/03 05:01:46;;;;;;;24.90;7.35;;;;;;;;;;4934543;28;20051;-88
2021/04/03 05:04:16;;;;;;;21.67;6.97;;;;;;;;;;4939227;29;20051;-89
2021/04/03 05:06:43;;;;;;;13.98;4.22;;;;;;;;;;4934706;29;20059;-90
2021/04/03 05:09:11;;;;;;;17.63;5.93;;;;;;;;;;4932955;29;20063;-90
2021/04/03 05:11:40;;;;;;;34.35;6.28;;;;;;;;;;4963350;28;20051;-88
2021/04/03 05:14:08;;;;;;;23.55;7.82;;;;;;;;;;4942859;29;20561;-90
2021/04/03 05:16:36;;;;;;;19.67;5.00;;;6.70;99.90;;;;;;4934061;29;20074;-88
2021/04/03 05:19:04;;;;;;;16.42;7.03;;;;;;;;;;4915255;29;20051;-89
2021/04/03 05:21:32;;;;;;;21.20;5.65;;;;;;;;;;4938316;29;20043;-89
2021/04/03 05:23:59;;;;;;;12.43;5.95;;;;;;;;;;4946722;29;20058;-88
2021/04/03 05:26:27;;;;;;;23.38;5.38;;;;;;;;;;4950783;29;20043;-89
2021/04/03 05:28:55;;;;;;;25.70;5.63;;;;;;;;;;4929538;28;20081;-88
2021/04/03 05:31:27;;;;;;;27.40;6.88;;;;;;;;;;4940033;29;20051;-88
2021/04/03 05:33:55;;;;;;;25.45;7.63;;;;;;;;;;4957734;28;20062;-87
2021/04/03 05:36:23;;;;;;;10.00;4.05;;;;;;;;;;4961061;28;20063;-87
2021/04/03 05:38:55;;;;;;;29.42;5.80;;;;;;;;;;4948474;29;20064;-88
2021/04/03 05:41:23;;;;;;;17.52;5.97;;;;;;;;;;4909413;29;20048;-88
2021/04/03 05:43:52;;;;;;;19.25;5.25;;;;;;;;;;4928613;28;20062;-89
2021/04/03 05:46:20;;;;;;;21.77;6.57;;;;;;;;;;4945410;29;20144;-89
2021/04/03 05:48:48;;;;;;;16.08;4.90;;;;;;;;;;4957153;28;20051;-90
2021/04/03 05:51:18;;;;;;;16.13;5.00;;;6.70;99.90;;;;;;4947919;29;20059;-90
2021/04/03 05:53:46;;;;;;;24.77;5.63;;;6.60;99.90;;;;;;4966671;28;20051;-89
2021/04/03 05:56:14;;;;;;;16.70;4.82;;;;;;;;;;4899428;29;20063;-89
2021/04/03 05:58:42;;;;;;;17.77;4.90;;;;;;;;;;4922105;28;20052;-88
2021/04/03 06:01:09;;;;;;;13.73;5.25;;;;;;;;;;4944867;28;20058;-89
2021/04/03 06:03:37;;;;;;;20.10;4.45;;;;;;;;;;4967846;28;20067;-88
2021/04/03 06:06:05;;;;;;;13.80;4.40;;;;;;;;;;4936779;29;20047;-89
2021/04/03 06:08:33;;;;;;;26.25;7.60;;;6.60;99.90;;;;;;4931331;29;20048;-89
2021/04/03 06:11:22;;;;;;;26.45;6.85;;;6.70;99.90;;;;;;4951494;29;20047;-88
2021/04/03 06:13:56;;;;;;;17.98;4.72;;;;;;;;;;4932534;28;20513;-88
2021/04/03 06:16:25;;;;;;;33.53;6.63;;;6.60;99.90;;;;;;4956557;28;20043;-88
2021/04/03 06:19:10;;;;;;;17.25;5.43;;;6.80;99.90;;;;;;4955139;28;20135;-90
2021/04/03 06:21:54;;;;;;;20.30;4.53;;;6.70;99.90;;;;;;4922774;28;20054;-90
2021/04/03 06:24:30;;;;;;;14.93;6.13;;;6.40;99.90;;;;;;4909078;29;20058;-90
2021/04/03 06:27:19;;;;;;;18.02;7.07;;;6.60;99.90;;;;;;4939035;29;20055;-89
2021/04/03 06:30:16;;;;;;;18.98;6.53;;;;;;;;;;4943214;29;20419;-88
2021/04/03 06:32:46;;;;;;;20.05;5.15;;;;;;;;;;4939259;28;20066;-89
2021/04/03 06:35:13;;;;;;;16.63;4.90;;;;;;;;;;4927623;29;20054;-88
2021/04/03 06:37:41;;;;;;;22.40;4.45;;;;;;;;;;4963745;28;20055;-88
2021/04/03 06:40:11;;;;;;;20.60;4.95;;;6.90;99.90;;;;;;4924502;29;20066;-88
2021/04/03 06:42:39;;;;;;;37.83;6.40;;;;;;;;;;4947537;28;20058;-89
2021/04/03 06:45:38;;;;;;;20.38;7.15;;;6.90;99.90;;;;;;4979651;28;20054;-88
2021/04/03 06:48:09;;;;;;;16.45;5.07;;;7.10;99.90;;;;;;4961445;29;20074;-89
2021/04/03 06:50:40;;;;;;;29.58;5.22;;;7.10;99.90;;;;;;4931721;29;20058;-88
2021/04/03 06:53:20;;;;;;;19.35;5.93;;;;;;;;;;4945800;29;20058;-89
2021/04/03 06:55:50;;;;;;;15.38;3.85;;;7.50;99.90;;;;;;4944174;28;20046;-89
2021/04/03 06:58:20;;;;;;;42.00;7.18;;;7.10;99.90;;;;;;4933521;29;20051;-88
2021/04/03 07:00:50;;;;;;;16.50;4.25;;;7.10;99.90;;;;;;4935571;28;20062;-89
2021/04/03 07:03:24;;;;;;;24.73;6.53;;;7.20;99.90;;;;;;4953124;28;20059;-88
2021/04/03 07:05:53;;;;;;;19.48;6.57;;;;;;;;;;4939394;28;20042;-89
2021/04/03 07:08:24;;;;;;;20.67;5.83;;;;;;;;;;4980792;28;20039;-90
2021/04/03 07:11:06;;;;;;;24.13;4.55;;;7.20;99.90;;;;;;4978811;28;20042;-88
2021/04/03 07:13:37;;;;;;;26.60;5.33;;;7.20;99.90;;;;;;4938579;29;20028;-89
2021/04/03 07:16:07;;;;;;;17.20;5.75;;;7.30;99.90;;;;;;4916985;29;20066;-88
2021/04/03 07:18:37;;;;;;;22.73;7.22;;;7.40;99.90;;;;;;4951275;29;20067;-87
2021/04/03 07:21:08;;;;;;;14.02;5.85;;;7.20;99.90;;;;;;4910341;29;20070;-90
2021/04/03 07:23:38;;;;;;;;;;;7.50;99.90;;;;;;4931410;29;20062;-87
2021/04/03 07:27:00;;;;;;;23.83;4.80;;;7.30;99.90;;;;;;4962694;28;19923;-89
2021/04/03 07:29:40;;;;;;;16.73;5.03;;;;;;;;;;4944663;28;20051;-88
2021/04/03 07:32:37;;;;;;;24.77;4.80;;;7.30;99.90;;;;;;4931149;29;20063;-87
2021/04/03 07:35:18;;;;;;;24.38;9.13;;;;;;;;;;4940552;29;20063;-90
2021/04/03 07:37:47;;;;;;;24.63;5.20;;;7.30;99.90;;;;;;4959352;29;20052;-88
2021/04/03 07:40:22;;;;;;;16.45;4.75;;;7.30;99.90;;;;;;4923424;29;20047;-88
2021/04/03 07:42:50;;;;;;;21.80;5.90;;;;;;;;;;4958353;28;20056;-89
2021/04/03 07:45:30;;;;;;;20.13;6.05;;;7.40;99.90;;;;;;4934589;29;20051;-89
2021/04/03 07:48:01;;;;;;;16.55;5.75;;;;;;;;;;4922509;29;20058;-90
2021/04/03 07:50:45;;;;;;;23.48;5.55;;;7.50;99.90;;;;;;4955300;28;20066;-89
2021/04/03 07:53:41;;;;;;;23.85;5.93;;;7.50;99.90;;;;;;4923587;29;20054;-87
2021/04/03 07:56:11;;;;;;;23.42;6.45;;;7.60;99.90;;;;;;4937243;29;20131;-87
2021/04/03 07:58:47;;;;;;;23.23;5.85;;;7.50;99.90;;;;;;4932681;29;20048;-89
2021/04/03 08:01:27;;;;;;;29.10;6.57;;;7.40;99.90;;;;;;4930578;28;20089;-88
2021/04/03 08:04:04;;;;;;;22.92;4.65;;;7.40;99.90;;;;;;4947650;28;20055;-89
2021/04/03 08:06:41;;;;;;;23.70;5.38;;;7.50;99.90;;;;;;4927333;29;20512;-88
2021/04/03 08:09:15;;;;;;;17.65;5.55;;;7.60;99.90;;;;;;4935517;29;20055;-87
2021/04/03 08:11:44;;;;;;;16.52;5.95;;;7.70;99.90;;;;;;4967603;28;20043;-88
2021/04/03 08:14:13;;;;;;;18.92;4.72;;;7.80;99.90;;;;;;4961498;28;20071;-87
2021/04/03 08:16:42;;;;;;;16.70;4.63;;;7.80;99.90;;;;;;4919683;29;20048;-87
2021/04/03 08:19:11;;;;;;;13.02;4.68;;;;;;;;;;4927436;29;20056;-87
2021/04/03 08:21:44;;;;;;;18.17;4.72;;;7.90;99.90;;;;;;4930646;29;20435;-87
2021/04/03 08:24:15;;;;;;;17.85;5.28;;;7.80;99.90;;;;;;4935061;29;20067;-89
2021/04/03 08:26:43;;;;;;;33.53;5.40;;;8.00;99.90;;;;;;4935732;29;20047;-86
2021/04/03 08:29:25;;;;;;;13.88;3.92;;;8.00;99.90;;;;;;4922643;29;20062;-88
2021/04/03 08:31:54;;;;;;;19.20;5.18;;;8.00;99.90;;;;;;4952590;28;20055;-87
2021/04/03 08:34:23;;;;;;;17.05;5.40;;;;;;;;;;4959191;28;20069;-87
2021/04/03 08:36:51;;;;;;;14.45;4.95;;;;;;;;;;4947260;29;20399;-87
2021/04/03 08:39:20;;;;;;;15.48;5.32;;;8.20;99.90;;;;;;4966727;28;20058;-88
2021/04/03 08:41:51;;;;;;;17.65;4.75;;;8.00;99.90;;;;;;4960628;28;20055;-86
2021/04/03 08:44:26;;;;;;;15.38;3.78;;;8.10;99.90;;;;;;4959042;29;20047;-86
2021/04/03 08:47:03;;;;;;;10.90;4.55;;;8.30;99.90;;;;;;4907819;29;20098;-86
2021/04/03 08:49:37;;;;;;;28.27;6.38;;;8.10;99.90;;;;;;4957790;28;20051;-88
2021/04/03 08:52:08;;;;;;;17.90;5.78;;;8.10;99.90;;;;;;4935651;29;20055;-87
2021/04/03 08:54:36;;;;;;;12.75;4.63;;;8.20;99.90;;;;;;4945546;29;20051;-87
2021/04/03 08:57:27;;;;;;;16.35;3.83;;;8.20;99.90;;;;;;4950125;29;20062;-87
2021/04/03 08:59:58;;;;;;;18.25;5.13;;;8.10;99.90;;;;;;4914627;29;20057;-85
2021/04/03 09:02:27;;;;;;;16.73;3.88;;;;;;;;;;4930150;29;20055;-85
2021/04/03 09:04:54;;;;;;;17.33;4.60;;;8.30;99.90;;;;;;4956128;28;20058;-85
2021/04/03 09:07:31;;;;;;;26.45;8.43;;;8.40;99.90;;;;;;4939489;29;20048;-84
2021/04/03 09:10:11;;;;;;;22.20;4.22;;;8.30;99.90;;;;;;4946853;28;20066;-85
2021/04/03 09:12:38;;;;;;;16.52;4.72;;;;;;;;;;4950964;29;20058;-85
2021/04/03 09:15:07;;;;;;;19.83;4.63;;;;;;;;;;4951642;28;20059;-85
2021/04/03 09:17:44;;;;;;;24.40;5.55;;;8.40;99.90;;;;;;4943439;29;20054;-85
2021/04/03 09:20:17;;;;;;;17.35;5.07;;;8.50;99.90;;;;;;4928295;29;20059;-84
2021/04/03 09:22:44;;;;;;;20.08;4.32;;;;;;;;;;4929828;29;20071;-85
2021/04/03 09:25:14;;;;;;;14.13;4.03;;;8.50;99.90;;;;;;4953116;29;20066;-85
2021/04/03 09:27:42;;;;;;;21.50;4.72;;;;;;;;;;4949181;29;20062;-86
2021/04/03 09:30:12;;;;;;;14.85;4.93;;;8.50;99.90;;;;;;4966326;28;20051;-86
2021/04/03 09:32:44;;;;;;;27.33;5.28;;;8.50;99.90;;;;;;4920558;29;20070;-85
2021/04/03 09:35:27;;;;;;;20.55;4.63;;;9.10;99.90;;;;;;4933360;29;20120;-85
2021/04/03 09:38:02;;;;;;;18.85;4.93;;;8.70;99.90;;;;;;4943477;29;20051;-86
2021/04/03 09:40:42;;;;;;;18.30;3.78;;;8.70;99.90;;;;;;4952749;29;20278;-84
2021/04/03 09:43:15;;;;;;;18.17;7.03;;;8.70;99.90;;;;;;4938777;29;20066;-85
2021/04/03 09:45:44;;;;;;;26.98;5.40;;;;;;;;;;4930122;29;20055;-83
2021/04/03 09:48:12;;;;;;;15.40;5.03;;;;;;;;;;4943233;29;20367;-85
2021/04/03 09:50:41;;;;;;;17.88;4.10;;;8.70;99.90;;;;;;4951608;29;20051;-84
2021/04/03 09:53:10;;;;;;;23.80;4.28;;;8.70;99.90;;;;;;4953567;28;20062;-86
2021/04/03 09:55:39;;;;;;;12.30;4.50;;;;;;;;;;4951149;29;20073;-86
2021/04/03 09:58:06;;;;;;;22.17;4.65;;;;;;;;;;4957240;28;20055;-83
2021/04/03 10:00:34;;;;;;;23.33;7.28;;;;;;;;;;4940410;29;20047;-83
2021/04/03 10:03:03;;;;;;;21.35;5.40;;;;;;;;;;4949793;29;20146;-86
2021/04/03 10:05:31;;;;;;;25.55;4.70;;;;;;;;;;4950759;28;20047;-84
2021/04/03 10:07:58;;;;;;;12.40;4.97;;;;;;;;;;4932879;29;20187;-83
2021/04/03 10:10:27;;;;;;;20.77;3.78;;;;;;;;;;4938312;29;20044;-81
2021/04/03 10:12:57;;;;;;;19.83;4.25;;;;;;;;;;4931645;29;20055;-79
2021/04/03 10:15:25;;;;;;;16.85;4.95;;;;;;;;;;4945461;29;20071;-82
2021/04/03 10:17:53;;;;;;;18.58;5.32;;;;;;;;;;4946486;29;20459;-84
2021/04/03 10:20:20;;;;;;;16.98;5.28;;;;;;;;;;4942249;28;20055;-83
2021/04/03 10:22:49;;;;;;;25.90;5.10;;;;;;;;;;4942366;29;20467;-83
2021/04/03 10:25:16;;;;;;;19.02;4.35;;;;;;;;;;4941952;28;20506;-82
2021/04/03 10:27:44;;;;;;;13.27;3.67;;;;;;;;;;4930286;29;20051;-82
2021/04/03 10:30:12;;;;;;;22.73;5.13;;;9.60;99.90;;;;;;4945931;28;20403;-82
2021/04/03 10:32:40;;;;;;;21.38;7.00;;;;;;;;;;4909634;28;20046;-81
2021/04/03 10:35:08;;;;;;;25.85;4.80;;;9.50;99.90;;;;;;4938049;29;20051;-85
2021/04/03 10:37:35;;;;;;;19.02;5.80;;;;;;;;;;4908214;29;20456;-82
2021/04/03 10:40:04;;;;;;;28.38;4.95;;;9.60;99.90;;;;;;4947333;28;20066;-82
2021/04/03 10:42:32;;;;;;;21.90;5.25;;;;;;;;;;4939261;29;20054;-84
2021/04/03 10:45:00;;;;;;;22.23;4.65;;;;;;;;;;4947389;28;20051;-84
2021/04/03 10:47:28;;;;;;;16.52;5.47;;;;;;;;;;4946062;28;20609;-81
2021/04/03 10:49:55;;;;;;;23.38;6.22;;;;;;;;;;4947916;28;20062;-81
2021/04/03 10:52:24;;;;;;;22.27;4.90;;;9.80;99.90;;;;;;4945809;28;20043;-84
2021/04/03 10:54:52;;;;;;;18.10;5.28;;;;;;;;;;4931493;28;20501;-81
2021/04/03 10:57:22;;;;;;;82.35;12.90;;;;;;;;;;4941604;28;20058;-82
2021/04/03 10:59:50;;;;;;;247.95;39.53;;;;;;;;;;4938367;29;20054;-85
2021/04/03 11:02:19;;;;;;;23.73;4.47;;;;;;;;;;4944583;29;20055;-87
2021/04/03 11:04:47;;;;;;;13.10;4.40;;;;;;;;;;4930537;28;20047;-84
2021/04/03 11:07:15;;;;;;;29.77;5.72;;;10.40;99.90;;;;;;4949817;28;20392;-84
2021/04/03 11:09:43;;;;;;;19.60;5.57;;;;;;;;;;4932202;29;20440;-82
2021/04/03 11:12:11;;;;;;;15.45;5.50;;;;;;;;;;4940172;28;20066;-81
2021/04/03 11:14:39;;;;;;;13.98;4.05;;;;;;;;;;4942601;28;20051;-82
2021/04/03 11:17:06;;;;;;;29.33;7.82;;;;;;;;;;4944668;28;20063;-85
2021/04/03 11:19:35;;;;;;;12.43;5.00;;;;;;;;;;4946020;29;20052;-82
2021/04/03 11:22:03;;;;;;;15.38;4.63;;;10.50;99.90;;;;;;4931966;29;20570;-84
2021/04/03 11:24:32;;;;;;;16.13;4.45;;;;;;;;;;4929790;29;20058;-84
2021/04/03 11:27:01;;;;;;;26.75;7.70;;;10.80;99.90;;;;;;4931503;29;20055;-84
2021/04/03 11:29:45;;;;;;;18.75;6.00;;;;;;;;;;4962157;28;20050;-80
2021/04/03 11:32:14;;;;;;;18.95;4.20;;;;;;;;;;4960099;28;20047;-84
2021/04/03 11:34:41;;;;;;;31.98;5.50;;;10.30;99.90;;;;;;4945039;28;20840;-83
2021/04/03 11:37:09;;;;;;;18.58;4.15;;;;;;;;;;4912899;28;20055;-84
2021/04/03 11:39:44;;;;;;;19.15;4.80;;;;;;;;;;4937019;29;20063;-84
2021/04/03 11:42:12;;;;;;;28.20;7.43;;;;;;;;;;4946068;29;20057;-85
2021/04/03 11:44:40;;;;;;;17.02;5.30;;;;;;;;;;4922276;29;20054;-80
2021/04/03 11:47:07;;;;;;;22.65;5.07;;;;;;;;;;4947591;29;20051;-81
2021/04/03 11:49:35;;;;;;;34.50;7.30;;;;;;;;;;4927863;29;20499;-82
2021/04/03 11:52:03;;;;;;;121.65;18.23;;;;;;;;;;4928196;29;20067;-80
2021/04/03 11:54:31;;;;;;;59.88;7.38;;;10.50;99.90;;;;;;4937830;28;20059;-81
2021/04/03 11:56:59;;;;;;;28.05;5.13;;;;;;;;;;4929788;28;20052;-81
2021/04/03 11:59:27;;;;;;;21.08;5.53;;;;;;;;;;4937854;29;20069;-83
2021/04/03 12:01:58;;;;;;;18.15;5.50;;;;;;;;;;4942434;28;20067;-83
2021/04/03 12:04:26;;;;;;;21.75;8.55;;;;;;;;;;4950485;28;20064;-82
2021/04/03 12:06:53;;;;;;;19.23;4.78;;;;;;;;;;4952413;28;20078;-82
2021/04/03 12:09:21;;;;;;;24.35;5.75;;;;;;;;;;4952501;28;20070;-81
2021/04/03 12:11:49;;;;;;;39.85;5.95;;;;;;;;;;4953219;29;20140;-80
2021/04/03 12:14:16;;;;;;;21.25;4.93;;;;;;;;;;4935895;29;20051;-79
2021/04/03 12:16:44;;;;;;;19.00;4.97;;;;;;;;;;4937956;29;20411;-82
2021/04/03 12:19:14;;;;;;;18.67;5.20;;;;;;;;;;4952107;29;20052;-79
2021/04/03 12:21:41;;;;;;;45.13;6.38;;;;;;;;;;4937686;29;20055;-80
2021/04/03 12:24:09;;;;;;;19.83;7.60;;;;;;;;;;4950924;29;20162;-81
2021/04/03 12:26:37;;;;;;;13.95;4.03;;;10.90;99.90;;;;;;4954593;29;20052;-81
2021/04/03 12:29:05;;;;;;;46.78;8.20;;;10.60;99.90;;;;;;4949937;29;20213;-80
2021/04/03 12:31:33;;;;;;;29.52;5.25;;;;;;;;;;4951793;29;20402;-83
2021/04/03 12:34:00;;;;;;;26.55;4.78;;;;;;;;;;4940845;29;20149;-84
2021/04/03 12:36:30;;;;;;;13.38;4.35;;;;;;;;;;4937120;29;20133;-88
2021/04/03 12:38:57;;;;;;;21.00;6.85;;;;;;;;;;4949122;28;20056;-84
2021/04/03 12:41:25;;;;;;;16.67;5.57;;;;;;;;;;4940357;29;20052;-82
2021/04/03 12:43:53;;;;;;;24.98;4.97;;;;;;;;;;4948885;29;20062;-82
2021/04/03 12:46:21;;;;;;;19.40;3.40;;;10.90;97.00;;;;;;4948291;28;20047;-83
2021/04/03 12:48:48;;;;;;;22.80;4.40;;;;;;;;;;4947258;28;21291;-82
2021/04/03 12:51:16;;;;;;;12.93;5.07;;;;;;;;;;4935793;29;20062;-82
2021/04/03 12:53:43;;;;;;;18.15;4.95;;;;;;;;;;4935142;29;20066;-82
2021/04/03 12:56:11;;;;;;;15.90;4.55;;;;;;;;;;4947119;28;20067;-83
2021/04/03 12:58:38;;;;;;;16.20;5.15;;;11.40;99.90;;;;;;4948382;28;20062;-81
2021/04/03 13:01:06;;;;;;;23.00;5.85;;;;;;;;;;4920019;29;20423;-80
2021/04/03 13:03:34;;;;;;;22.40;5.43;;;;;;;;;;4950441;28;20062;-81
2021/04/03 13:06:02;;;;;;;17.05;4.38;;;;;;;;;;4948475;28;20063;-80
2021/04/03 13:08:30;;;;;;;17.13;4.95;;;;;;;;;;4944769;28;20051;-81
2021/04/03 13:10:58;;;;;;;14.73;6.40;;;;;;;;;;4932568;29;20838;-85
2021/04/03 13:13:26;;;;;;;19.90;4.47;;;;;;;;;;4941464;29;20052;-83
2021/04/03 13:15:54;;;;;;;13.02;3.13;;;;;;;;;;4946221;29;20066;-82
2021/04/03 13:18:22;;;;;;;33.97;5.50;;;11.40;96.20;;;;;;4946863;29;20514;-84
2021/04/03 13:20:52;;;;;;;25.52;5.22;;;;;;;;;;4948217;29;20074;-82
2021/04/03 13:23:20;;;;;;;22.75;6.55;;;;;;;;;;4944402;29;20055;-86
2021/04/03 13:25:47;;;;;;;29.05;5.05;;;;;;;;;;4928043;29;20051;-83
2021/04/03 13:28:15;;;;;;;20.50;6.20;;;;;;;;;;4901249;29;20051;-81
2021/04/03 13:30:43;;;;;;;26.65;7.00;;;;;;;;;;4940163;29;20039;-83
2021/04/03 13:33:11;;;;;;;15.85;3.22;;;;;;;;;;4922922;29;20423;-83
2021/04/03 13:35:38;;;;;;;21.15;3.97;;;;;;;;;;4946052;29;20055;-82
2021/04/03 13:38:06;;;;;;;15.20;6.65;;;;;;;;;;4948005;29;20055;-82
2021/04/03 13:40:33;;;;;;;18.65;5.53;;;;;;;;;;4930083;29;20067;-83
2021/04/03 13:43:02;;;;;;;20.45;5.43;;;;;;;;;;4913912;29;20055;-84
2021/04/03 13:45:30;;;;;;;26.15;4.70;;;;;;;;;;4946799;29;20058;-83
2021/04/03 13:47:57;;;;;;;25.52;5.43;;;;;;;;;;4956095;29;20055;-83
2021/04/03 13:50:25;;;;;;;22.35;5.57;;;;;;;;;;4964933;29;20055;-83
2021/04/03 13:52:52;;;;;;;22.95;5.45;;;;;;;;;;4961609;29;20059;-83
2021/04/03 13:55:20;;;;;;;14.15;3.88;;;;;;;;;;4964466;29;20061;-84
2021/04/03 13:57:47;;;;;;;18.30;5.18;;;;;;;;;;4962170;29;20047;-83
2021/04/03 14:00:15;;;;;;;16.20;5.57;;;13.00;96.60;;;;;;4947936;29;20057;-87
2021/04/03 14:02:43;;;;;;;15.13;5.93;;;;;;;;;;4966009;28;20062;-84
2021/04/03 14:05:11;;;;;;;15.40;3.80;;;;;;;;;;4960280;29;20609;-83
2021/04/03 14:07:39;;;;;;;22.30;7.63;;;;;;;;;;4960887;29;20059;-84
2021/04/03 14:10:06;;;;;;;14.68;4.55;;;;;;;;;;4939393;29;20051;-83